Time;durP1;ratioP1;P1;durP2;ratioP2;P2;SDS_P1;SDS_P2;PMS_P1;PMS_P2;Temp;Humidity;BMP_temperature;BMP_pressure;BME280_temperature;BME280_humidity;BME280_pressure;Samples;Min_cycle;Max_cycle;Signal;HPM_P1;HPM_P2
2021/07/12 00:00:23;;;;;;;52.33;28.80;;;;;;;21.76;61.79;99910.06;5071264;28;20036;-23
2021/07/12 00:02:49;;;;;;;57.50;30.17;;;;;;;21.69;61.89;99914.25;5083261;28;20042;-23
2021/07/12 00:05:14;;;;;;;55.15;29.95;;;;;;;21.69;61.94;99897.97;5106254;28;20035;-23
2021/07/12 00:07:40;;;;;;;57.13;29.60;;;;;;;21.67;62.63;99912.63;5109425;28;20031;-23
2021/07/12 00:10:07;;;;;;;85.15;39.72;;;;;;;22.05;60.87;99901.69;5091348;28;20028;-23
2021/07/12 00:12:32;;;;;;;64.45;33.03;;;;;;;22.12;60.80;99895.03;5109808;28;20049;-23
2021/07/12 00:14:58;;;;;;;27.20;17.08;;;;;;;22.22;60.19;99897.56;5091169;28;20036;-23
2021/07/12 00:17:23;;;;;;;24.25;15.65;;;;;;;22.46;59.21;99911.78;5109655;28;20031;-23
2021/07/12 00:19:49;;;;;;;20.15;13.88;;;;;;;22.42;59.19;99904.56;5106159;28;20028;-23
2021/07/12 00:22:14;;;;;;;15.27;10.75;;;;;;;22.03;60.02;99906.59;5088893;28;20028;-23
2021/07/12 00:24:39;;;;;;;13.98;10.80;;;;;;;21.40;62.66;99912.50;5088880;28;20035;-23
2021/07/12 00:27:05;;;;;;;17.70;10.65;;;;;;;21.30;63.10;99910.75;5089007;28;20028;-23
2021/07/12 00:29:30;;;;;;;13.05;10.30;;;;;;;21.18;63.79;99908.47;5088504;28;20032;-23
2021/07/12 00:31:56;;;;;;;14.43;11.38;;;;;;;21.71;61.93;99912.06;5088804;28;20089;-23
2021/07/12 00:34:21;;;;;;;15.07;11.45;;;;;;;21.95;60.70;99903.78;5070677;28;20036;-23
2021/07/12 00:36:48;;;;;;;15.73;11.75;;;;;;;22.24;59.86;99919.84;5101268;28;20384;-23
2021/07/12 00:39:13;;;;;;;16.25;12.25;;;;;;;22.19;60.10;99917.16;5108726;28;20027;-23
2021/07/12 00:41:39;;;;;;;33.50;21.05;;;;;;;22.12;59.96;99911.34;5109240;28;20082;-23
2021/07/12 00:44:04;;;;;;;29.75;19.15;;;;;;;21.84;59.96;99890.38;5109023;28;20379;-23
2021/07/12 00:46:30;;;;;;;30.52;19.05;;;;;;;21.97;59.71;99907.78;5108757;28;20023;-23
2021/07/12 00:48:56;;;;;;;27.38;19.00;;;;;;;21.76;60.91;99903.81;5108668;28;20024;-23
2021/07/12 00:51:22;;;;;;;29.65;18.88;;;;;;;21.51;61.59;99900.41;5108917;28;20035;-23
2021/07/12 00:53:48;;;;;;;33.60;19.20;;;;;;;21.92;60.29;99897.00;5108506;28;20023;-23
2021/07/12 00:56:13;;;;;;;58.28;29.63;;;;;;;22.02;60.51;99901.47;5090581;28;20392;-23
2021/07/12 00:58:39;;;;;;;61.53;31.58;;;;;;;21.69;61.45;99898.78;5108456;28;20139;-23
2021/07/12 01:01:05;;;;;;;48.45;27.48;;;;;;;21.05;64.26;99911.94;5071557;28;20028;-23
2021/07/12 01:03:30;;;;;;;35.35;22.08;;;;;;;20.66;64.65;99907.56;5088209;28;20134;-23
2021/07/12 01:05:56;;;;;;;59.05;30.48;;;;;;;21.11;63.57;99913.47;5087696;28;20501;-23
2021/07/12 01:08:22;;;;;;;35.17;22.45;;;;;;;20.80;63.87;99904.91;5087992;28;20032;-22
2021/07/12 01:11:09;;;;;;;31.27;19.83;;;;;;;20.29;65.79;99906.34;5088374;28;20569;-23
2021/07/12 01:13:35;;;;;;;;;;;;;;;20.39;64.92;99905.38;5069235;28;20511;-23
2021/07/12 01:16:09;;;;;;;37.63;23.23;;;;;;;20.52;64.47;99898.50;5087668;28;20012;-23
2021/07/12 01:18:42;;;;;;;34.97;22.90;;;;;;;21.20;62.25;99903.56;5069966;28;20038;-23
2021/07/12 01:21:37;;;;;;;38.80;23.42;;;;;;;21.42;62.00;99924.69;5087639;28;20039;-22
2021/07/12 01:24:12;;;;;;;33.42;20.85;;;;;;;20.92;63.75;99921.56;5087930;28;20438;-23
2021/07/12 01:27:14;;;;;;;30.35;21.08;;;;;;;20.46;65.23;99911.28;5089791;28;20020;-23
2021/07/12 01:30:04;;;;;;;29.90;19.40;;;;;;;19.92;67.21;99910.50;5087914;28;20046;-23
2021/07/12 01:32:52;;;;;;;27.95;17.77;;;;;;;19.56;69.20;99915.34;5080871;28;20134;-23
2021/07/12 01:35:19;;;;;;;26.38;17.10;;;;;;;20.10;66.27;99902.72;5107890;28;20027;-23
2021/07/12 01:37:54;;;;;;;25.40;17.55;;;;;;;20.63;65.10;99921.66;5072526;28;20570;-23
2021/07/12 01:40:28;;;;;;;26.58;17.50;;;;;;;21.01;63.61;99911.69;5107845;28;20057;-23
2021/07/12 01:43:26;;;;;;;24.88;15.85;;;;;;;20.98;63.92;99914.97;5108286;28;20069;-23
2021/07/12 01:46:00;;;;;;;24.27;16.13;;;;;;;20.89;63.94;99903.19;5082233;28;20061;-23
2021/07/12 01:49:12;;;;;;;24.95;14.88;;;;;;;21.11;63.40;99916.19;5069235;28;20024;-23
2021/07/12 01:51:49;;;;;;;21.70;15.18;;;;;;;20.80;64.90;99904.91;5087570;28;20031;-23
2021/07/12 01:54:40;;;;;;;24.13;16.50;;;;;;;20.92;63.78;99889.03;5053752;28;20055;-23
2021/07/12 01:57:11;;;;;;;20.15;14.85;;;;;;;20.65;64.44;99889.69;5052533;28;20032;-23
2021/07/12 01:59:40;;;;;;;17.80;14.88;;;;;;;20.97;63.72;99890.91;5053289;28;20035;-23
2021/07/12 02:02:06;;;;;;;22.02;14.98;;;;;;;21.27;62.23;99881.53;5087038;28;20107;-23
2021/07/12 02:04:31;;;;;;;25.45;17.73;;;;;;;21.33;62.43;99899.31;5069339;28;20526;-23
2021/07/12 02:06:57;;;;;;;32.83;21.75;;;;;;;21.58;61.55;99898.13;5069141;28;20024;-23
2021/07/12 02:09:22;;;;;;;50.65;27.85;;;;;;;21.14;63.13;99899.31;5053015;28;20476;-23
2021/07/12 02:11:47;;;;;;;57.45;33.05;;;;;;;21.02;63.75;99891.63;5068613;28;20078;-23
2021/07/12 02:14:17;;;;;;;87.88;43.80;;;;;;;21.07;63.40;99898.88;5052230;28;20056;-23
2021/07/12 02:16:42;;;;;;;43.17;25.70;;;;;;;21.25;62.65;99911.63;5052478;28;20867;-23
2021/07/12 02:19:07;;;;;;;42.67;26.42;;;;;;;21.21;63.01;99910.63;5052515;28;20032;-23
2021/07/12 02:21:34;;;;;;;31.40;19.10;;;;;;;20.51;65.14;99902.28;5069077;28;20496;-23
2021/07/12 02:24:03;;;;;;;23.55;16.42;;;;;;;20.52;64.87;99899.28;5052218;28;20433;-23
2021/07/12 02:26:29;;;;;;;20.80;15.15;;;;;;;20.87;63.55;99898.06;5090291;28;20028;-23
2021/07/12 02:28:54;;;;;;;18.98;13.95;;;;;;;20.60;63.99;99911.44;5073218;28;20036;-23
2021/07/12 02:31:19;;;;;;;20.10;13.05;;;;;;;20.46;64.23;99912.06;5056584;28;20035;-23
2021/07/12 02:33:45;;;;;;;21.67;15.02;;;;;;;19.94;66.40;99911.00;5073343;28;20028;-23
2021/07/12 02:36:10;;;;;;;20.52;14.07;;;;;;;20.43;64.40;99901.84;5073026;28;20043;-23
2021/07/12 02:38:36;;;;;;;26.88;16.35;;;;;;;20.57;64.01;99911.97;5090961;28;20039;-23
2021/07/12 02:41:02;;;;;;;28.95;18.13;;;;;;;20.82;62.75;99908.97;5091133;28;20059;-23
2021/07/12 02:43:27;;;;;;;17.17;12.95;;;;;;;20.80;61.75;99908.47;5056300;28;20032;-23
2021/07/12 02:45:53;;;;;;;23.60;15.27;;;;;;;20.32;63.38;99913.88;5060171;28;20034;-23
2021/07/12 02:48:19;;;;;;;25.60;16.40;;;;;;;20.38;63.43;99912.72;5056395;28;20040;-23
2021/07/12 02:50:45;;;;;;;29.60;17.77;;;;;;;20.92;61.82;99918.06;5090780;28;20028;-23
2021/07/12 02:53:18;;;;;;;61.75;33.67;;;;;;;20.90;61.04;99931.09;5072271;28;20049;-23
2021/07/12 02:55:44;;;;;;;47.60;28.25;;;;;;;21.03;60.45;99927.69;5072571;28;20089;-23
2021/07/12 02:58:09;;;;;;;32.55;20.13;;;;;;;21.11;60.48;99932.44;5090529;28;20039;-23
2021/07/12 03:00:35;;;;;;;18.20;14.15;;;;;;;20.99;60.55;99929.38;5090617;28;20427;-23
2021/07/12 03:03:00;;;;;;;16.73;11.45;;;;;;;20.85;60.53;99916.50;5090735;28;20815;-23
2021/07/12 03:05:26;;;;;;;13.77;10.50;;;;;;;20.78;60.43;99924.22;5090504;28;20028;-23
2021/07/12 03:08:17;;;;;;;13.70;10.65;;;;;;;20.58;61.37;99929.84;5089988;28;20039;-23
2021/07/12 03:10:56;;;;;;;16.92;11.02;;;;;;;20.44;61.75;99919.69;5072339;28;20098;-23
2021/07/12 03:13:38;;;;;;;14.90;10.35;;;;;;;20.14;63.25;99936.25;5088684;28;20799;-23
2021/07/12 03:16:04;;;;;;;14.85;10.68;;;;;;;20.41;62.43;99930.28;5088849;28;20032;-23
2021/07/12 03:18:31;;;;;;;13.68;9.85;;;;;;;20.36;61.54;99923.03;5072138;28;20032;-23
2021/07/12 03:21:01;;;;;;;15.27;10.02;;;;;;;20.38;61.83;99934.38;5072006;28;20046;-23
2021/07/12 03:23:27;;;;;;;12.20;9.23;;;;;;;20.42;61.26;99930.00;5057270;28;20092;-23
2021/07/12 03:25:54;;;;;;;11.88;9.50;;;;;;;20.18;62.20;99940.81;5096343;28;20486;-23
2021/07/12 03:28:20;;;;;;;13.70;9.43;;;;;;;20.12;62.24;99914.06;5075260;28;20508;-23
2021/07/12 03:30:45;;;;;;;12.07;9.43;;;;;;;19.91;63.41;99911.56;5092267;28;20027;-23
2021/07/12 03:33:11;;;;;;;14.15;9.50;;;;;;;19.71;64.35;99927.97;5110221;28;20032;-23
2021/07/12 03:35:41;;;;;;;12.13;9.48;;;;;;;19.30;65.79;99923.63;5074548;28;20027;-23
2021/07/12 03:38:07;;;;;;;20.60;9.75;;;;;;;19.53;64.76;99913.19;5075385;28;20043;-23
2021/07/12 03:40:32;;;;;;;18.77;12.18;;;;;;;19.76;63.71;99912.50;5075018;28;20020;-22
2021/07/12 03:42:58;;;;;;;19.02;12.70;;;;;;;19.81;63.56;99938.72;5091833;28;20039;-23
2021/07/12 03:45:23;;;;;;;30.67;16.80;;;;;;;20.25;62.40;99943.19;5075061;28;20772;-23
2021/07/12 03:47:50;;;;;;;28.75;17.08;;;;;;;20.11;61.68;99882.69;5074934;28;20046;-23
2021/07/12 03:50:16;;;;;;;30.10;17.80;;;;;;;20.37;62.54;99935.50;5110146;28;20027;-23
2021/07/12 03:52:43;;;;;;;20.48;13.85;;;;;;;20.13;62.89;99940.06;5091923;28;20057;-23
2021/07/12 03:55:10;;;;;;;20.23;15.13;;;;;;;20.46;62.53;99939.16;5089473;28;20043;-22
2021/07/12 03:57:35;;;;;;;20.05;13.85;;;;;;;20.56;62.04;99932.84;5089546;28;20518;-23
2021/07/12 04:00:00;;;;;;;19.55;13.65;;;;;;;20.45;62.37;99932.16;5089029;28;20078;-23
2021/07/12 04:02:26;;;;;;;15.07;12.05;;;;;;;20.47;62.93;99924.53;5089606;28;20506;-23
2021/07/12 04:04:51;;;;;;;16.98;12.75;;;;;;;20.43;63.23;99926.22;5089419;28;20389;-23
2021/07/12 04:07:17;;;;;;;14.02;11.30;;;;;;;19.92;64.50;99942.13;5089011;28;20027;-23
2021/07/12 04:09:42;;;;;;;14.43;11.63;;;;;;;20.10;64.00;99933.31;5071007;28;20420;-23
2021/07/12 04:12:08;;;;;;;14.52;11.55;;;;;;;20.34;63.89;99941.47;5071325;28;20040;-23
2021/07/12 04:14:33;;;;;;;14.63;12.20;;;;;;;20.23;63.81;99945.38;5088820;28;20060;-23
2021/07/12 04:16:59;;;;;;;16.45;12.27;;;;;;;20.47;63.47;99940.78;5089025;28;20028;-23
2021/07/12 04:19:24;;;;;;;14.55;10.93;;;;;;;20.70;62.75;99927.56;5088939;28;20028;-23
2021/07/12 04:21:50;;;;;;;15.13;11.65;;;;;;;20.97;62.16;99942.41;5070752;28;20081;-23
2021/07/12 04:24:15;;;;;;;19.65;11.90;;;;;;;20.96;62.20;99938.06;5089035;28;20028;-23
2021/07/12 04:26:40;;;;;;;13.65;11.20;;;;;;;20.52;63.51;99936.41;5089213;28;20542;-23
2021/07/12 04:29:06;;;;;;;13.90;11.38;;;;;;;20.15;65.37;99937.88;5088775;28;20028;-23
2021/07/12 04:31:33;;;;;;;18.02;11.77;;;;;;;19.96;65.89;99935.88;5089059;28;20032;-23
2021/07/12 04:33:58;;;;;;;15.05;12.05;;;;;;;20.25;66.36;99943.19;5088441;28;20036;-23
2021/07/12 04:36:24;;;;;;;14.75;12.30;;;;;;;20.04;66.82;99943.41;5070524;28;20036;-23
2021/07/12 04:38:50;;;;;;;18.40;13.23;;;;;;;20.05;67.16;99931.47;5070541;28;20493;-23
2021/07/12 04:41:15;;;;;;;14.38;12.82;;;;;;;20.23;67.04;99942.69;5088826;28;20145;-23
2021/07/12 04:43:41;;;;;;;16.92;13.85;;;;;;;20.72;65.54;99941.63;5088215;28;20483;-23
2021/07/12 04:46:06;;;;;;;16.33;13.57;;;;;;;20.70;65.68;99943.00;5088390;28;20160;-23
2021/07/12 04:48:32;;;;;;;19.13;14.98;;;;;;;20.76;66.64;99942.66;5087980;28;20028;-23
2021/07/12 04:50:57;;;;;;;17.10;15.30;;;;;;;20.43;67.99;99939.75;5088784;28;20028;-23
2021/07/12 04:53:23;;;;;;;18.98;15.15;;;;;;;20.70;67.29;99943.00;5088430;28;20038;-23
2021/07/12 04:55:48;;;;;;;17.27;15.15;;;;;;;20.82;67.30;99946.94;5088146;28;20400;-23
2021/07/12 04:58:13;;;;;;;22.67;16.73;;;;;;;20.99;66.94;99942.91;5070221;28;20039;-23
2021/07/12 05:00:39;;;;;;;19.30;15.90;;;;;;;21.07;66.85;99943.06;5088397;28;20027;-23
2021/07/12 05:03:06;;;;;;;18.98;15.73;;;;;;;21.43;66.27;99955.34;5088312;28;20049;-23
2021/07/12 05:05:31;;;;;;;22.45;16.67;;;;;;;21.54;65.67;99937.81;5037204;28;20028;-23
2021/07/12 05:07:57;;;;;;;23.42;18.58;;;;;;;21.71;65.12;99939.19;5088298;28;20340;-23
2021/07/12 05:10:22;;;;;;;20.02;15.85;;;;;;;21.84;64.45;99949.28;5088049;28;20024;-23
2021/07/12 05:12:48;;;;;;;16.40;14.15;;;;;;;21.52;65.52;99945.44;5069454;28;20055;-23
2021/07/12 05:15:13;;;;;;;17.15;15.18;;;;;;;22.02;64.35;99948.41;5069761;28;20090;-23
2021/07/12 05:17:39;;;;;;;17.17;13.80;;;;;;;22.06;64.27;99946.72;5087900;28;20047;-23
2021/07/12 05:20:06;;;;;;;16.27;12.90;;;;;;;22.53;62.69;99940.47;5069557;28;20035;-23
2021/07/12 05:22:31;;;;;;;19.10;14.85;;;;;;;22.66;62.70;99936.97;5069625;28;20042;-23
2021/07/12 05:24:56;;;;;;;20.52;15.07;;;;;;;22.73;62.44;99937.34;5069879;28;20040;-23
2021/07/12 05:27:22;;;;;;;21.88;15.20;;;;;;;22.98;61.88;99937.94;5087575;28;20043;-23
2021/07/12 05:29:48;;;;;;;16.75;13.93;;;;;;;22.85;63.14;99936.84;5087476;28;20133;-23
2021/07/12 05:32:13;;;;;;;14.88;13.10;;;;;;;23.01;62.54;99943.59;5087775;28;20385;-23
2021/07/12 05:34:39;;;;;;;15.82;13.25;;;;;;;22.80;62.97;99926.88;5087478;28;20032;-23
2021/07/12 05:37:04;;;;;;;15.95;14.23;;;;;;;22.71;64.27;99934.13;5087631;28;20088;-23
2021/07/12 05:39:30;;;;;;;16.15;14.32;;;;;;;23.05;63.15;99938.38;5087583;28;20407;-23
2021/07/12 05:41:55;;;;;;;17.48;13.90;;;;;;;23.14;62.36;99941.16;5087731;28;20028;-22
2021/07/12 05:44:20;;;;;;;16.80;13.63;;;;;;;23.07;63.66;99947.03;5087486;28;20032;-22
2021/07/12 05:46:46;;;;;;;16.38;13.25;;;;;;;23.19;61.82;99941.03;5087276;28;20032;-23
2021/07/12 05:49:11;;;;;;;15.95;13.52;;;;;;;23.35;62.25;99941.50;5087187;28;20380;-22
2021/07/12 05:51:37;;;;;;;17.48;13.07;;;;;;;23.33;60.76;99941.00;5087961;28;20035;-23
2021/07/12 05:54:02;;;;;;;14.88;12.65;;;;;;;23.47;60.51;99952.63;5069404;28;20475;-23
2021/07/12 05:56:28;;;;;;;13.88;12.23;;;;;;;23.42;60.16;99952.78;5087171;28;20039;-23
2021/07/12 05:58:53;;;;;;;18.00;13.05;;;;;;;23.63;60.80;99953.88;5087061;28;20051;-23
2021/07/12 06:01:19;;;;;;;15.00;12.80;;;;;;;23.94;60.19;99945.00;5087133;28;20036;-23
2021/07/12 06:03:44;;;;;;;15.13;12.70;;;;;;;23.84;58.87;99947.97;5068977;28;20036;-23
2021/07/12 06:06:10;;;;;;;15.00;12.32;;;;;;;23.86;59.22;99938.41;5087369;28;20046;-23
2021/07/12 06:08:35;;;;;;;14.05;12.40;;;;;;;24.17;59.03;99937.59;5087241;28;20028;-23
2021/07/12 06:11:01;;;;;;;15.00;12.30;;;;;;;24.32;58.40;99936.38;5087408;28;20468;-23
2021/07/12 06:13:26;;;;;;;15.85;12.70;;;;;;;24.41;58.31;99939.16;5086987;28;20048;-23
2021/07/12 06:15:52;;;;;;;17.00;12.52;;;;;;;24.52;57.76;99926.88;5087110;28;20097;-23
2021/07/12 06:18:17;;;;;;;18.33;13.07;;;;;;;24.54;57.94;99924.66;5087111;28;20372;-23
2021/07/12 06:20:44;;;;;;;16.92;13.75;;;;;;;24.38;57.78;99926.97;5087108;28;20024;-23
2021/07/12 06:23:09;;;;;;;19.10;14.18;;;;;;;24.74;56.84;99938.81;5069179;28;20024;-23
2021/07/12 06:25:35;;;;;;;15.90;12.63;;;;;;;24.56;57.42;99935.22;5087160;28;20039;-23
2021/07/12 06:28:00;;;;;;;16.63;13.00;;;;;;;24.80;57.50;99935.59;5086843;28;20356;-23
2021/07/12 06:30:26;;;;;;;14.75;12.32;;;;;;;24.91;57.36;99938.84;5086954;28;20184;-23
2021/07/12 06:32:51;;;;;;;16.58;13.20;;;;;;;25.11;56.46;99932.00;5086878;28;20028;-23
2021/07/12 06:35:17;;;;;;;15.18;12.88;;;;;;;25.63;55.48;99939.41;5086955;28;20024;-23
2021/07/12 06:37:42;;;;;;;13.05;11.35;;;;;;;25.59;54.64;99935.72;5086682;28;20032;-23
2021/07/12 06:40:08;;;;;;;14.52;10.93;;;;;;;25.35;55.78;99938.91;5086626;28;20027;-23
2021/07/12 06:42:34;;;;;;;13.15;10.07;;;;;;;25.19;57.17;99947.56;5086647;28;20028;-23
2021/07/12 06:44:59;;;;;;;13.70;10.50;;;;;;;25.46;55.10;99935.56;5086731;28;20476;-23
2021/07/12 06:47:25;;;;;;;12.98;10.80;;;;;;;25.84;53.54;99937.59;5086722;28;20024;-23
2021/07/12 06:49:51;;;;;;;11.45;10.25;;;;;;;26.05;52.71;99950.59;5086972;28;20031;-23
2021/07/12 06:52:16;;;;;;;16.80;10.13;;;;;;;25.62;52.84;99944.06;5087311;28;20027;-23
2021/07/12 06:54:45;;;;;;;13.45;9.60;;;;;;;25.99;53.16;99949.97;5086832;28;20039;-23
2021/07/12 06:57:10;;;;;;;15.55;9.82;;;;;;;26.13;52.41;99948.97;5087002;28;20044;-23
2021/07/12 06:59:36;;;;;;;12.88;9.80;;;;;;;26.22;52.48;99941.56;5086919;28;20483;-23
2021/07/12 07:02:02;;;;;;;10.40;8.70;;;;;;;26.10;51.83;99941.44;5086608;28;20032;-23
2021/07/12 07:04:27;;;;;;;12.98;9.55;;;;;;;26.12;51.57;99941.91;5086878;28;20407;-23
2021/07/12 07:06:53;;;;;;;10.85;8.75;;;;;;;26.17;50.35;99941.72;5086851;28;20032;-23
2021/07/12 07:09:18;;;;;;;12.52;8.95;;;;;;;26.49;49.70;99936.78;5086911;28;20020;-23
2021/07/12 07:11:44;;;;;;;15.75;9.07;;;;;;;26.56;50.67;99928.84;5088129;28;20028;-24
2021/07/12 07:14:09;;;;;;;11.52;8.20;;;;;;;26.88;48.96;99932.09;5103265;28;20056;-23
2021/07/12 07:16:35;;;;;;;10.15;8.13;;;;;;;26.71;48.36;99925.59;5110666;28;20396;-23
2021/07/12 07:19:00;;;;;;;10.15;8.60;;;;;;;26.93;49.22;99940.09;5110683;28;20040;-23
2021/07/12 07:21:26;;;;;;;10.43;8.70;;;;;;;26.72;49.14;99940.06;5111210;28;20035;-23
2021/07/12 07:23:51;;;;;;;10.75;8.45;;;;;;;26.97;49.30;99938.28;5110236;28;20763;-23
2021/07/12 07:26:17;;;;;;;10.40;9.13;;;;;;;27.08;48.61;99941.47;5110406;28;20030;-23
2021/07/12 07:28:42;;;;;;;15.63;9.45;;;;;;;27.43;48.32;99947.50;5110682;28;20035;-23
2021/07/12 07:31:08;;;;;;;12.15;9.55;;;;;;;27.57;47.19;99948.00;5110927;28;20031;-23
2021/07/12 07:33:33;;;;;;;13.05;9.07;;;;;;;27.53;46.58;99930.66;5110342;28;20039;-23
2021/07/12 07:35:59;;;;;;;10.63;9.23;;;;;;;27.38;46.30;99940.28;5110349;28;20063;-23
2021/07/12 07:38:24;;;;;;;11.80;9.23;;;;;;;27.51;46.95;99932.91;5110418;28;20035;-23
2021/07/12 07:40:50;;;;;;;12.02;9.68;;;;;;;27.53;45.84;99941.59;5095310;28;20054;-23
2021/07/12 07:43:15;;;;;;;10.88;9.50;;;;;;;27.89;47.10;99953.88;5089930;28;20869;-23
2021/07/12 07:45:41;;;;;;;12.15;9.63;;;;;;;28.32;46.33;99958.06;5089827;28;20062;-23
2021/07/12 07:48:06;;;;;;;13.20;9.48;;;;;;;27.78;45.30;99952.66;5071378;28;20407;-23
2021/07/12 07:50:36;;;;;;;11.82;9.25;;;;;;;27.83;46.46;99960.66;5089795;28;20479;-23
2021/07/12 07:53:02;;;;;;;12.00;8.88;;;;;;;27.99;46.58;99942.47;5089495;28;20032;-23
2021/07/12 07:55:27;;;;;;;11.52;9.57;;;;;;;28.09;45.06;99945.91;5089588;28;20107;-23
2021/07/12 07:57:52;;;;;;;11.23;9.02;;;;;;;28.18;44.88;99952.09;5089479;28;20089;-23
2021/07/12 08:00:19;;;;;;;11.27;9.05;;;;;;;28.28;44.67;99937.94;5089484;28;20028;-23
2021/07/12 08:02:44;;;;;;;14.48;9.63;;;;;;;28.51;44.61;99945.78;5089675;28;20120;-23
2021/07/12 08:05:10;;;;;;;13.35;9.25;;;;;;;28.30;43.47;99946.63;5089477;28;20446;-23
2021/07/12 08:07:36;;;;;;;10.93;8.18;;;;;;;28.23;44.17;99946.38;5089801;28;20070;-23
2021/07/12 08:10:03;;;;;;;9.93;8.40;;;;;;;28.42;43.41;99937.59;5089120;28;20085;-23
2021/07/12 08:12:28;;;;;;;9.95;8.90;;;;;;;28.58;44.51;99943.25;5088972;28;20032;-23
2021/07/12 08:14:54;;;;;;;12.13;10.05;;;;;;;28.62;44.61;99938.66;5089134;28;20086;-23
2021/07/12 08:17:19;;;;;;;12.73;9.57;;;;;;;28.87;44.81;99935.91;5089536;28;20032;-23
2021/07/12 08:19:45;;;;;;;13.30;9.20;;;;;;;28.60;42.92;99936.25;5089014;28;20031;-23
2021/07/12 08:22:10;;;;;;;12.65;9.68;;;;;;;28.82;44.40;99932.25;5089293;28;20036;-22
2021/07/12 08:24:35;;;;;;;10.68;9.40;;;;;;;29.05;42.65;99934.50;5089170;28;20484;-23
2021/07/12 08:27:02;;;;;;;10.52;9.02;;;;;;;29.22;41.39;99925.22;5089507;28;20043;-23
2021/07/12 08:29:29;;;;;;;11.82;8.70;;;;;;;29.50;39.37;99936.22;5089202;28;20032;-23
2021/07/12 08:31:54;;;;;;;10.57;7.67;;;;;;;29.19;38.08;99937.69;5089008;28;20035;-23
2021/07/12 08:34:19;;;;;;;12.18;8.70;;;;;;;29.51;40.00;99937.81;5088978;28;20036;-23
2021/07/12 08:36:45;;;;;;;11.38;8.85;;;;;;;29.30;39.68;99920.72;5088672;28;20093;-23
2021/07/12 08:39:10;;;;;;;10.52;9.00;;;;;;;29.84;39.30;99934.03;5088793;28;20423;-23
2021/07/12 08:41:37;;;;;;;11.85;8.88;;;;;;;29.91;38.87;99928.69;5088907;28;20032;-23
2021/07/12 08:44:03;;;;;;;12.43;8.80;;;;;;;30.14;38.28;99933.59;5088318;28;20035;-23
2021/07/12 08:46:28;;;;;;;11.25;8.13;;;;;;;30.04;39.56;99935.75;5088807;28;20024;-23
2021/07/12 08:48:54;;;;;;;10.98;8.30;;;;;;;30.13;39.65;99932.03;5070538;28;20032;-23
2021/07/12 08:51:19;;;;;;;14.02;8.23;;;;;;;30.20;37.68;99935.75;5088609;28;20031;-23
2021/07/12 08:53:46;;;;;;;11.20;8.55;;;;;;;30.47;39.01;99927.00;5088419;28;20479;-23
2021/07/12 08:56:11;;;;;;;9.52;8.05;;;;;;;30.61;37.00;99932.84;5088705;28;20085;-23
2021/07/12 08:58:37;;;;;;;8.75;7.82;;;;;;;30.24;39.59;99933.88;5053598;28;20036;-23
2021/07/12 09:01:05;;;;;;;8.75;7.82;;;;;;;30.23;37.82;99931.50;5070058;28;20020;-22
2021/07/12 09:03:31;;;;;;;10.38;7.93;;;;;;;30.31;36.63;99927.78;5070281;28;20423;-22
2021/07/12 09:06:07;;;;;;;10.85;7.80;;;;;;;30.68;34.13;99919.22;5088104;28;20593;-23
2021/07/12 09:08:42;;;;;;;9.65;7.97;;;;;;;31.11;33.38;99920.19;5088103;28;20024;-23
2021/07/12 09:11:10;;;;;;;12.55;8.35;;;;;;;31.10;34.27;99915.84;5088144;28;20519;-23
2021/07/12 09:13:45;;;;;;;10.70;8.00;;;;;;;30.40;33.62;99919.34;5087719;28;20131;-23
2021/07/12 09:16:35;;;;;;;12.02;8.65;;;;;;;31.04;37.04;99911.78;5087742;28;20058;-22
2021/07/12 09:19:07;;;;;;;9.95;8.10;;;;;;;31.06;34.53;99914.97;5087823;28;20449;-22
2021/07/12 09:21:53;;;;;;;12.18;8.48;;;;;;;31.22;34.27;99918.47;5087676;28;20047;-22
2021/07/12 09:24:31;;;;;;;10.43;8.30;;;;;;;31.52;34.78;99904.13;5087791;28;20044;-23
2021/07/12 09:27:01;;;;;;;9.35;8.32;;;;;;;31.56;36.66;99907.72;5087881;28;20584;-23
2021/07/12 09:29:34;;;;;;;9.60;8.10;;;;;;;31.44;34.42;99908.69;5108532;28;20550;-23
2021/07/12 09:32:02;;;;;;;11.75;9.07;;;;;;;31.54;36.68;99907.31;5107894;28;20035;-23
2021/07/12 09:34:27;;;;;;;9.00;7.85;;;;;;;31.59;34.85;99911.75;5080894;28;20085;-23
2021/07/12 09:36:53;;;;;;;9.88;8.23;;;;;;;31.64;37.32;99900.41;5097091;28;20031;-23
2021/07/12 09:39:39;;;;;;;9.93;8.00;;;;;;;31.78;33.64;99894.34;5097816;28;20028;-23
2021/07/12 09:42:08;;;;;;;11.32;8.40;;;;;;;31.67;33.98;99904.38;5096529;28;20023;-23
2021/07/12 09:44:36;;;;;;;10.68;8.02;;;;;;;31.85;33.16;99905.50;5097088;28;20031;-23
2021/07/12 09:47:06;;;;;;;10.30;8.13;;;;;;;31.90;34.25;99907.97;5095771;28;20449;-23
2021/07/12 09:49:32;;;;;;;11.13;8.23;;;;;;;32.07;33.96;99895.66;5094951;28;20456;-23
2021/07/12 09:52:03;;;;;;;11.40;7.57;;;;;;;31.50;34.60;99892.66;5094211;28;20028;-23
2021/07/12 09:54:33;;;;;;;9.80;7.93;;;;;;;31.63;33.88;99896.06;5093445;28;20043;-23
2021/07/12 09:57:07;;;;;;;9.45;8.02;;;;;;;32.26;33.45;99903.06;5094536;28;20035;-23
2021/07/12 09:59:33;;;;;;;9.57;8.20;;;;;;;32.36;32.63;99902.44;5078067;28;20028;-23
2021/07/12 10:01:58;;;;;;;9.00;7.72;;;;;;;31.62;33.50;99886.97;5098036;28;20027;-23
2021/07/12 10:04:24;;;;;;;11.05;7.70;;;;;;;31.88;33.17;99891.00;5094021;28;20039;-23
2021/07/12 10:06:51;;;;;;;10.70;8.27;;;;;;;32.02;33.44;99896.00;5096996;28;20453;-23
2021/07/12 10:09:19;;;;;;;9.40;7.82;;;;;;;32.20;32.85;99896.25;5095872;28;20035;-23
2021/07/12 10:11:45;;;;;;;11.20;7.85;;;;;;;32.23;32.48;99895.53;5096480;28;20103;-23
2021/07/12 10:14:11;;;;;;;10.32;7.75;;;;;;;32.11;34.21;99884.69;5097735;28;20048;-23
2021/07/12 10:16:37;;;;;;;11.35;7.65;;;;;;;32.54;33.24;99890.88;5096251;28;20453;-23
2021/07/12 10:19:03;;;;;;;9.75;8.00;;;;;;;32.66;31.25;99889.91;5107412;28;20503;-23
2021/07/12 10:21:39;;;;;;;9.38;7.85;;;;;;;32.97;32.30;99888.72;5094632;28;20472;-23
2021/07/12 10:24:05;;;;;;;9.52;8.55;;;;;;;33.35;31.80;99889.63;5101159;28;20028;-23
2021/07/12 10:26:49;;;;;;;9.80;8.20;;;;;;;33.13;33.19;99894.09;5106259;28;20053;-22
2021/07/12 10:29:26;;;;;;;12.40;8.60;;;;;;;32.70;33.04;99893.50;5094925;28;20027;-23
2021/07/12 10:32:00;;;;;;;9.38;8.00;;;;;;;32.77;33.49;99886.09;5087129;28;20487;-22
2021/07/12 10:34:31;;;;;;;9.45;7.40;;;;;;;33.11;30.91;99877.88;5087121;28;20064;-22
2021/07/12 10:37:01;;;;;;;9.30;8.23;;;;;;;33.29;31.20;99880.09;5086978;28;20115;-22
2021/07/12 10:39:59;;;;;;;10.77;7.90;;;;;;;33.02;32.01;99877.38;5087058;28;20034;-23
2021/07/12 10:42:45;;;;;;;11.00;7.90;;;;;;;33.39;30.62;99874.66;5085473;28;20055;-23
2021/07/12 10:45:29;;;;;;;9.60;7.47;;;;;;;33.05;31.79;99882.13;5089412;28;20078;-22
2021/07/12 10:47:57;;;;;;;10.55;7.75;;;;;;;33.55;29.67;99874.44;5089981;28;20040;-23
2021/07/12 10:50:38;;;;;;;8.40;7.18;;;;;;;33.79;29.68;99884.16;5090708;28;20046;-23
2021/07/12 10:53:26;;;;;;;10.48;7.97;;;;;;;33.80;30.16;99866.41;5092344;28;20580;-23
2021/07/12 10:55:58;;;;;;;8.60;7.53;;;;;;;33.77;30.56;99878.22;5086095;28;20043;-23
2021/07/12 10:58:26;;;;;;;8.18;7.22;;;;;;;33.75;29.92;99868.72;5095606;28;20035;-23
2021/07/12 11:00:53;;;;;;;10.77;7.60;;;;;;;33.96;29.34;99874.44;5099526;28;20081;-23
2021/07/12 11:03:51;;;;;;;9.88;8.38;;;;;;;34.01;30.00;99865.78;5090702;28;20032;-23
2021/07/12 11:06:21;;;;;;;10.43;7.78;;;;;;;33.87;28.84;99873.97;5073053;28;20040;-22
2021/07/12 11:08:54;;;;;;;12.18;7.07;;;;;;;34.12;27.75;99878.91;5090802;28;20034;-23
2021/07/12 11:11:20;;;;;;;10.20;8.05;;;;;;;34.46;26.66;99878.78;5098338;28;20041;-23
2021/07/12 11:14:05;;;;;;;9.73;7.28;;;;;;;34.52;28.63;99868.94;5097033;28;20056;-22
2021/07/12 11:16:47;;;;;;;8.82;7.32;;;;;;;34.80;28.54;99868.34;5101762;28;20096;-23
2021/07/12 11:19:20;;;;;;;9.80;7.53;;;;;;;35.03;27.34;99873.56;5100544;28;20031;-23
2021/07/12 11:21:45;;;;;;;10.90;7.22;;;;;;;35.52;27.20;99861.06;5102105;28;20035;-23
2021/07/12 11:24:11;;;;;;;10.55;7.43;;;;;;;34.54;26.90;99861.03;5104320;28;20036;-23
2021/07/12 11:26:38;;;;;;;10.40;7.38;;;;;;;34.26;28.63;99867.97;5104402;28;20024;-22